createdAt,value
2022-11-28T00:02:01.475Z,97.24
2022-11-28T00:04:32.946Z,97.28
2022-11-28T00:07:04.485Z,97.15
2022-11-28T00:09:38.181Z,97.14
2022-11-28T00:12:09.904Z,97.09
2022-11-28T00:14:41.634Z,97.05
2022-11-28T00:17:13.359Z,97.11
2022-11-28T00:19:44.892Z,97.21
2022-11-28T00:22:16.392Z,96.75
2022-11-28T00:24:47.881Z,96.75
2022-11-28T00:27:19.331Z,96.62
2022-11-28T00:29:50.826Z,96.79
2022-11-28T00:32:24.548Z,96.76
2022-11-28T00:34:56.436Z,96.92
2022-11-28T00:37:28.193Z,96.54
2022-11-28T00:39:59.664Z,96.78
2022-11-28T00:42:31.172Z,96.81
2022-11-28T00:45:02.616Z,96.69
2022-11-28T00:47:34.091Z,96.83
2022-11-28T00:50:06.688Z,96.56
2022-11-28T00:52:38.161Z,96.70
2022-11-28T00:55:10.495Z,96.74
2022-11-28T00:57:41.998Z,96.70
2022-11-28T01:00:15.225Z,96.76
2022-11-28T01:02:46.803Z,96.68
2022-11-28T01:05:18.397Z,96.94
2022-11-28T01:07:49.988Z,96.93
2022-11-28T01:10:21.602Z,96.79
2022-11-28T01:13:00.993Z,96.87
2022-11-28T01:15:32.480Z,96.89
2022-11-28T01:18:04.159Z,96.82
2022-11-28T01:20:35.653Z,97.02
2022-11-28T01:23:07.156Z,97.19
2022-11-28T01:25:38.723Z,97.09
2022-11-28T01:28:10.217Z,97.14
2022-11-28T01:30:41.787Z,97.11
2022-11-28T01:33:14.047Z,97.15
2022-11-28T01:35:54.352Z,97.47
2022-11-28T01:38:36.702Z,97.42
2022-11-28T01:41:08.630Z,97.39
2022-11-28T01:43:54.198Z,97.50
2022-11-28T01:46:25.788Z,97.58
2022-11-28T01:49:00.240Z,97.54
2022-11-28T01:51:32.677Z,97.31
2022-11-28T01:54:11.951Z,97.51
2022-11-28T01:56:48.400Z,97.40
2022-11-28T01:59:21.227Z,97.47
2022-11-28T02:01:53.071Z,97.46
2022-11-28T02:04:27.084Z,97.50
2022-11-28T02:06:58.579Z,97.83
2022-11-28T02:09:30.094Z,97.42
2022-11-28T02:12:20.269Z,97.46
2022-11-28T02:15:11.678Z,97.38
2022-11-28T02:17:56.600Z,97.70
2022-11-28T02:20:57.539Z,97.43
2022-11-28T02:23:39.399Z,97.47
2022-11-28T02:26:47.445Z,97.43
2022-11-28T02:29:51.298Z,97.46
2022-11-28T02:32:33.766Z,97.34
2022-11-28T02:35:15.976Z,97.37
2022-11-28T02:37:59.645Z,97.14
2022-11-28T02:40:37.496Z,97.16
2022-11-28T02:43:17.928Z,97.31
2022-11-28T02:45:56.456Z,96.99
2022-11-28T02:48:37.260Z,97.17
2022-11-28T02:51:14.999Z,97.23
2022-11-28T02:53:49.917Z,97.25
2022-11-28T02:56:25.141Z,97.07
2022-11-28T02:58:57.032Z,96.89
2022-11-28T03:01:32.064Z,97.38
2022-11-28T03:04:28.003Z,97.21
2022-11-28T03:07:10.719Z,97.09
2022-11-28T03:09:57.146Z,97.25
2022-11-28T03:12:44.146Z,97.33
2022-11-28T03:15:19.654Z,97.30
2022-11-28T03:18:03.834Z,97.35
2022-11-28T03:20:45.679Z,97.42
2022-11-28T03:23:20.663Z,97.51
2022-11-28T03:25:59.921Z,97.28
2022-11-28T03:28:42.042Z,97.32
2022-11-28T03:31:20.251Z,97.16
2022-11-28T03:33:57.283Z,97.32
2022-11-28T03:36:28.485Z,97.39
2022-11-28T03:39:04.587Z,97.45
2022-11-28T03:41:39.649Z,97.93
2022-11-28T03:44:16.691Z,97.72
2022-11-28T03:46:47.854Z,97.98
2022-11-28T03:49:31.928Z,97.52
2022-11-28T03:52:06.675Z,97.82
2022-11-28T03:54:44.981Z,98.11
2022-11-28T03:57:22.515Z,98.02
2022-11-28T03:59:56.442Z,98.01
2022-11-28T04:02:35.316Z,98.13
2022-11-28T04:05:18.517Z,97.86
2022-11-28T04:07:55.457Z,98.17
2022-11-28T04:10:33.293Z,98.14
2022-11-28T04:13:14.662Z,98.42
2022-11-28T04:15:54.486Z,98.34
2022-11-28T04:18:29.240Z,98.24
2022-11-28T04:21:09.107Z,98.30
2022-11-28T04:23:45.108Z,98.46
2022-11-28T04:26:21.120Z,98.79
2022-11-28T04:28:54.082Z,98.59
2022-11-28T04:31:28.784Z,98.64
2022-11-28T04:34:05.624Z,98.89
2022-11-28T04:36:40.547Z,98.73
2022-11-28T04:39:19.458Z,98.83
2022-11-28T04:41:55.044Z,98.71
2022-11-28T04:44:32.379Z,99.02
2022-11-28T04:47:04.291Z,99.12
2022-11-28T04:49:36.231Z,99.15
2022-11-28T04:52:10.797Z,99.25
2022-11-28T04:54:53.505Z,98.91
2022-11-28T04:57:31.113Z,99.15
2022-11-28T05:00:07.330Z,99.15
2022-11-28T05:02:41.657Z,99.14
2022-11-28T05:05:16.448Z,99.16
2022-11-28T05:07:48.092Z,99.49
2022-11-28T05:10:22.425Z,99.32
2022-11-28T05:12:54.182Z,99.21
2022-11-28T05:15:25.620Z,99.57
2022-11-28T05:17:57.333Z,99.63
2022-11-28T05:20:29.014Z,99.51
2022-11-28T05:23:00.440Z,99.35
2022-11-28T05:25:31.928Z,99.43
2022-11-28T05:28:04.099Z,99.50
2022-11-28T05:30:36.579Z,99.36
2022-11-28T05:33:08.068Z,99.61
2022-11-28T05:35:42.532Z,99.62
2022-11-28T05:38:16.562Z,99.75
2022-11-28T05:40:48.021Z,99.57
2022-11-28T05:43:19.531Z,99.74
2022-11-28T05:45:51.037Z,99.75
2022-11-28T05:48:22.697Z,99.89
2022-11-28T05:50:54.197Z,99.46
2022-11-28T05:53:25.990Z,99.74
2022-11-28T05:55:57.550Z,99.89
2022-11-28T05:58:29.083Z,99.72
2022-11-28T06:01:01.562Z,99.79
2022-11-28T06:03:33.261Z,99.84
2022-11-28T06:06:09.236Z,99.78
2022-11-28T06:08:40.739Z,99.82
2022-11-28T06:11:14.830Z,99.87
2022-11-28T06:13:47.316Z,99.78
2022-11-28T06:16:21.253Z,99.85
2022-11-28T06:18:55.490Z,99.74
2022-11-28T06:21:28.651Z,99.70
2022-11-28T06:24:01.037Z,99.62
2022-11-28T06:26:32.906Z,99.74
2022-11-28T06:29:06.683Z,99.94
2022-11-28T06:31:38.929Z,99.89
2022-11-28T06:34:15.239Z,99.58
2022-11-28T06:36:55.422Z,99.82
2022-11-28T06:39:32.428Z,99.91
2022-11-28T06:42:09.738Z,99.84
2022-11-28T06:44:44.578Z,99.78
2022-11-28T06:47:20.093Z,99.87
2022-11-28T06:49:59.915Z,99.53
2022-11-28T06:52:34.890Z,99.85
2022-11-28T06:55:11.048Z,99.95
2022-11-28T06:57:50.133Z,99.62
2022-11-28T07:00:25.052Z,99.89
2022-11-28T07:03:00.557Z,99.96
2022-11-28T07:05:36.490Z,99.85
2022-11-28T07:08:11.622Z,99.73
2022-11-28T07:10:43.619Z,99.84
2022-11-28T07:13:16.369Z,100.00
2022-11-28T07:15:52.273Z,99.93
2022-11-28T07:18:28.870Z,99.91
2022-11-28T07:21:04.209Z,99.73
2022-11-28T07:23:38.234Z,99.94
2022-11-28T07:26:15.531Z,99.94
2022-11-28T07:28:48.277Z,99.77
2022-11-28T07:31:23.825Z,99.67
2022-11-28T07:33:56.970Z,99.73
2022-11-28T07:36:30.408Z,99.50
2022-11-28T07:39:05.428Z,99.50
2022-11-28T07:41:43.389Z,99.69
2022-11-28T07:44:21.839Z,99.39
2022-11-28T07:46:54.519Z,99.29
2022-11-28T07:49:29.171Z,99.57
2022-11-28T07:52:02.521Z,99.60
2022-11-28T07:54:35.242Z,99.49
2022-11-28T07:57:12.506Z,99.26
2022-11-28T07:59:45.220Z,99.52
2022-11-28T08:02:22.056Z,99.13
2022-11-28T08:04:55.499Z,99.49
2022-11-28T08:07:31.887Z,99.09
2022-11-28T08:10:04.153Z,99.11
2022-11-28T08:12:38.129Z,99.00
2022-11-28T08:15:13.484Z,98.99
2022-11-28T08:17:46.843Z,98.79
2022-11-28T08:20:20.062Z,98.92
2022-11-28T08:22:52.896Z,98.77
2022-11-28T08:25:24.389Z,98.68
2022-11-28T08:28:01.009Z,98.85
2022-11-28T08:30:33.025Z,98.63
2022-11-28T08:33:05.720Z,98.77
2022-11-28T08:35:40.090Z,98.88
2022-11-28T08:38:13.008Z,98.62
2022-11-28T08:40:44.610Z,98.63
2022-11-28T08:43:16.217Z,98.53
2022-11-28T08:45:49.464Z,98.48
2022-11-28T08:48:23.512Z,98.43
2022-11-28T08:50:56.378Z,98.45
2022-11-28T08:53:32.956Z,98.39
2022-11-28T08:56:04.691Z,98.16
2022-11-28T08:58:38.321Z,98.10
2022-11-28T09:01:18.435Z,97.90
2022-11-28T09:03:50.863Z,97.91
2022-11-28T09:06:25.610Z,97.84
2022-11-28T09:09:02.012Z,97.60
2022-11-28T09:11:36.341Z,97.54
2022-11-28T09:14:13.359Z,97.56
2022-11-28T09:16:52.318Z,97.39
2022-11-28T09:19:27.262Z,97.41
2022-11-28T09:22:01.523Z,97.37
2022-11-28T09:24:34.066Z,97.27
2022-11-28T09:27:08.543Z,97.31
2022-11-28T09:29:47.436Z,97.15
2022-11-28T09:32:26.240Z,97.13
2022-11-28T09:34:58.624Z,96.87
2022-11-28T09:37:35.062Z,96.85
2022-11-28T09:40:13.480Z,96.72
2022-11-28T09:42:48.857Z,96.63
2022-11-28T09:45:23.488Z,96.48
2022-11-28T09:47:58.890Z,96.27
2022-11-28T09:50:35.343Z,96.08
2022-11-28T09:53:25.093Z,95.85
2022-11-28T09:56:03.447Z,95.51
2022-11-28T09:58:42.383Z,95.26
2022-11-28T10:01:29.324Z,95.11
2022-11-28T10:04:11.193Z,94.87
2022-11-28T10:09:54.018Z,94.40
2022-11-28T10:12:40.459Z,94.31
2022-11-28T10:15:29.730Z,94.22
2022-11-28T10:18:18.388Z,94.29
2022-11-28T10:20:54.447Z,94.22
2022-11-28T10:26:25.143Z,94.03
2022-11-28T10:29:05.806Z,93.93
2022-11-28T10:31:45.595Z,93.68
2022-11-28T10:34:24.553Z,93.67
2022-11-28T10:37:02.653Z,93.64
2022-11-28T10:39:36.350Z,93.60
2022-11-28T10:42:20.412Z,93.43
2022-11-28T10:45:17.312Z,93.20
2022-11-28T10:48:41.603Z,92.75
2022-11-28T10:51:28.795Z,92.47
2022-11-28T10:54:18.208Z,91.99
2022-11-28T10:57:01.199Z,91.68
2022-11-28T10:59:45.075Z,91.40
2022-11-28T11:02:35.130Z,90.97
2022-11-28T11:05:08.490Z,90.59
2022-11-28T11:07:43.815Z,90.30
2022-11-28T11:10:20.161Z,89.93
2022-11-28T11:12:53.440Z,89.53
2022-11-28T11:15:31.938Z,89.11
2022-11-28T11:18:20.693Z,89.02
2022-11-28T11:21:09.093Z,89.01
2022-11-28T11:23:42.645Z,88.67
2022-11-28T11:26:26.939Z,88.60
2022-11-28T11:29:00.135Z,88.62
2022-11-28T11:31:40.147Z,88.55
2022-11-28T11:34:17.479Z,88.41
2022-11-28T11:36:51.419Z,88.46
2022-11-28T11:39:25.730Z,88.16
2022-11-28T11:42:20.512Z,88.43
2022-11-28T11:44:53.453Z,87.95
2022-11-28T11:47:45.419Z,87.89
2022-11-28T11:50:21.583Z,87.48
2022-11-28T11:53:13.084Z,87.34
2022-11-28T11:55:49.961Z,87.27
2022-11-28T11:58:24.772Z,87.10
2022-11-28T12:01:06.377Z,87.09
2022-11-28T12:03:43.368Z,86.94
2022-11-28T12:06:21.074Z,86.81
2022-11-28T12:09:04.584Z,86.46
2022-11-28T12:11:46.587Z,86.31
2022-11-28T12:14:31.959Z,86.09
2022-11-28T12:20:45.809Z,85.13
2022-11-28T12:23:33.014Z,84.70
2022-11-28T12:26:14.953Z,84.73
2022-11-28T12:29:04.175Z,84.50
2022-11-28T12:31:46.772Z,84.33
2022-11-28T12:34:32.917Z,84.09
2022-11-28T12:37:16.160Z,83.98
2022-11-28T12:39:58.960Z,83.72
2022-11-28T12:42:58.738Z,83.52
2022-11-28T12:45:39.814Z,83.39
2022-11-28T12:48:28.087Z,83.13
2022-11-28T12:51:07.051Z,82.73
2022-11-28T12:53:54.063Z,82.64
2022-11-28T12:56:37.440Z,82.82
2022-11-28T12:59:20.013Z,82.61
2022-11-28T13:02:05.189Z,82.72
2022-11-28T13:05:00.268Z,82.56
2022-11-28T13:07:47.686Z,82.54
2022-11-28T13:10:31.212Z,82.65
2022-11-28T13:13:11.545Z,82.72
2022-11-28T13:15:58.358Z,82.84
2022-11-28T13:18:42.292Z,82.89
2022-11-28T13:21:22.671Z,82.89
2022-11-28T13:24:07.095Z,82.97
2022-11-28T13:26:48.650Z,83.13
2022-11-28T13:29:33.199Z,83.25
2022-11-28T13:32:19.294Z,83.22
2022-11-28T13:34:51.665Z,83.24
2022-11-28T13:40:35.601Z,83.57
2022-11-28T13:43:17.233Z,83.72
2022-11-28T13:45:52.656Z,83.72
2022-11-28T13:49:14.322Z,83.79
2022-11-28T13:51:50.346Z,83.82
2022-11-28T13:54:46.205Z,83.81
2022-11-28T13:57:31.406Z,83.92
2022-11-28T14:00:28.184Z,83.95
2022-11-28T14:03:00.480Z,83.81
2022-11-28T14:05:36.539Z,83.81
2022-11-28T14:08:13.170Z,83.81
2022-11-28T14:11:35.532Z,83.77
2022-11-28T14:14:27.207Z,83.82
2022-11-28T14:17:14.492Z,83.85
2022-11-28T14:20:04.785Z,84.02
2022-11-28T14:22:50.254Z,84.05
2022-11-28T14:25:28.571Z,84.06
2022-11-28T14:28:06.276Z,84.28
2022-11-28T14:30:41.984Z,84.25
2022-11-28T14:33:23.796Z,84.21
2022-11-28T14:36:23.331Z,84.34
2022-11-28T14:39:36.341Z,84.42
2022-11-28T14:42:59.647Z,84.55
2022-11-28T14:45:46.381Z,84.72
2022-11-28T14:48:30.811Z,84.82
2022-11-28T14:51:07.313Z,85.05
2022-11-28T14:53:58.280Z,85.10
2022-11-28T14:56:36.535Z,85.15
2022-11-28T14:59:16.200Z,85.22
2022-11-28T15:01:58.650Z,85.34
2022-11-28T15:04:54.361Z,85.42
2022-11-28T15:07:36.516Z,85.32
2022-11-28T15:10:18.907Z,85.54
2022-11-28T15:13:12.415Z,85.73
2022-11-28T15:15:51.194Z,85.63
2022-11-28T15:18:26.052Z,85.83
2022-11-28T15:21:06.294Z,85.85
2022-11-28T15:23:39.930Z,85.88
2022-11-28T15:26:30.187Z,85.87
2022-11-28T15:29:19.189Z,85.93
2022-11-28T15:31:53.417Z,85.90
2022-11-28T15:34:31.150Z,85.96
2022-11-28T15:37:06.841Z,85.86
2022-11-28T15:39:40.739Z,86.02
2022-11-28T15:42:22.642Z,85.94
2022-11-28T15:45:00.883Z,86.13
2022-11-28T15:47:34.643Z,86.16
2022-11-28T15:50:18.252Z,86.24
2022-11-28T15:53:00.735Z,86.06
2022-11-28T15:55:35.012Z,86.26
2022-11-28T15:58:20.905Z,86.22
2022-11-28T16:01:02.261Z,86.24
2022-11-28T16:03:44.828Z,86.44
2022-11-28T16:06:19.704Z,86.47
2022-11-28T16:08:56.570Z,86.42
2022-11-28T16:11:35.953Z,86.24
2022-11-28T16:14:12.439Z,86.39
2022-11-28T16:19:53.719Z,86.36
2022-11-28T16:22:33.293Z,86.20
2022-11-28T16:25:25.211Z,86.04
2022-11-28T16:27:57.668Z,86.03
2022-11-28T16:30:36.811Z,86.02
2022-11-28T16:33:39.273Z,85.93
2022-11-28T16:36:21.756Z,86.12
2022-11-28T16:39:06.490Z,86.08
2022-11-28T16:41:45.504Z,86.09
2022-11-28T16:44:17.761Z,86.38
2022-11-28T16:46:55.060Z,86.27
2022-11-28T16:49:36.557Z,86.14
2022-11-28T16:52:45.623Z,86.19
2022-11-28T16:55:54.258Z,86.29
2022-11-28T16:58:24.276Z,86.12
2022-11-28T17:01:03.431Z,86.14
2022-11-28T17:03:50.729Z,86.07
2022-11-28T17:06:25.497Z,86.30
2022-11-28T17:08:57.366Z,86.14
2022-11-28T17:11:34.204Z,86.36
2022-11-28T17:14:13.116Z,86.34
2022-11-28T17:16:49.180Z,86.31
2022-11-28T17:19:21.282Z,86.09
2022-11-28T17:21:55.264Z,86.29
2022-11-28T17:24:30.559Z,86.27
2022-11-28T17:27:03.953Z,86.38
2022-11-28T17:29:36.489Z,86.25
2022-11-28T17:32:11.679Z,86.62
2022-11-28T17:34:43.772Z,86.54
2022-11-28T17:37:16.538Z,86.56
2022-11-28T17:40:05.471Z,86.46
2022-11-28T17:42:38.701Z,86.56
2022-11-28T17:45:16.055Z,86.58
2022-11-28T17:47:52.234Z,86.68
2022-11-28T17:50:23.974Z,86.73
2022-11-28T17:52:57.891Z,86.84
2022-11-28T17:55:29.647Z,86.74
2022-11-28T17:58:03.623Z,86.95
2022-11-28T18:00:36.710Z,86.89
2022-11-28T18:03:08.498Z,86.76
2022-11-28T18:05:43.144Z,87.00
2022-11-28T18:08:21.936Z,87.06
2022-11-28T18:11:02.466Z,87.07
2022-11-28T18:13:37.204Z,86.94
2022-11-28T18:16:11.685Z,86.76
2022-11-28T18:18:43.497Z,86.69
2022-11-28T18:21:20.390Z,86.49
2022-11-28T18:23:56.832Z,86.65
2022-11-28T18:26:28.709Z,86.62
2022-11-28T18:29:00.256Z,86.62
2022-11-28T18:31:34.222Z,86.75
2022-11-28T18:34:09.526Z,86.73
2022-11-28T18:36:42.320Z,86.68
2022-11-28T18:39:20.297Z,86.82
2022-11-28T18:41:53.934Z,86.82
2022-11-28T18:44:29.203Z,86.76
2022-11-28T18:47:00.969Z,86.78
2022-11-28T18:49:33.231Z,86.75
2022-11-28T18:52:08.381Z,86.69
2022-11-28T18:54:44.736Z,86.55
2022-11-28T18:57:19.870Z,86.71
2022-11-28T18:59:55.163Z,86.68
2022-11-28T19:02:27.397Z,86.59
2022-11-28T19:05:02.211Z,86.48
2022-11-28T19:07:34.093Z,86.62
2022-11-28T19:10:09.547Z,86.62
2022-11-28T19:12:41.852Z,86.66
2022-11-28T19:15:16.370Z,86.74
2022-11-28T19:17:47.773Z,86.75
2022-11-28T19:20:22.584Z,86.76
2022-11-28T19:22:54.879Z,86.94
2022-11-28T19:25:28.772Z,86.77
2022-11-28T19:28:00.651Z,86.87
2022-11-28T19:30:32.973Z,86.77
2022-11-28T19:33:06.880Z,86.84
2022-11-28T19:35:39.837Z,86.64
2022-11-28T19:38:11.776Z,86.74
2022-11-28T19:40:46.408Z,86.98
2022-11-28T19:43:18.302Z,86.89
2022-11-28T19:45:58.633Z,86.71
2022-11-28T19:48:33.223Z,86.63
2022-11-28T19:51:06.574Z,87.04
2022-11-28T19:53:40.478Z,86.39
2022-11-28T19:56:15.739Z,86.65
2022-11-28T19:58:58.797Z,86.53
2022-11-28T20:01:33.288Z,86.50
2022-11-28T20:04:05.386Z,86.73
2022-11-28T20:06:37.255Z,86.71
2022-11-28T20:09:14.556Z,86.66
2022-11-28T20:11:47.053Z,86.76
2022-11-28T20:14:25.525Z,86.73
2022-11-28T20:16:59.565Z,86.60
2022-11-28T20:19:31.288Z,86.78
2022-11-28T20:22:03.868Z,86.54
2022-11-28T20:24:37.132Z,86.45
2022-11-28T20:27:09.028Z,86.73
2022-11-28T20:29:44.639Z,86.83
2022-11-28T20:32:34.447Z,86.67
2022-11-28T20:35:06.947Z,86.91
2022-11-28T20:37:39.666Z,86.70
2022-11-28T20:40:13.406Z,86.72
2022-11-28T20:42:45.033Z,86.54
2022-11-28T20:45:16.956Z,86.60
2022-11-28T20:47:50.097Z,86.72
2022-11-28T20:50:29.987Z,86.71
2022-11-28T20:53:02.642Z,86.61
2022-11-28T20:57:30.930Z,86.54
2022-11-28T21:00:03.248Z,86.58
2022-11-28T21:02:34.912Z,86.62
2022-11-28T21:05:15.490Z,86.51
2022-11-28T21:07:47.559Z,86.74
2022-11-28T21:10:22.974Z,86.66
2022-11-28T21:12:55.561Z,86.70
2022-11-28T21:15:27.093Z,86.45
2022-11-28T21:18:02.062Z,86.39
2022-11-28T21:20:52.863Z,86.79
2022-11-28T21:23:25.250Z,86.48
2022-11-28T21:25:57.370Z,86.60
2022-11-28T21:28:31.791Z,86.74
2022-11-28T21:31:07.925Z,86.92
2022-11-28T21:33:49.372Z,86.61
2022-11-28T21:36:21.526Z,86.57
2022-11-28T21:38:56.794Z,86.58
2022-11-28T21:41:32.203Z,86.55
2022-11-28T21:44:05.068Z,86.43
2022-11-28T21:46:43.657Z,86.48
2022-11-28T21:49:33.264Z,86.57
2022-11-28T21:52:12.514Z,86.60
2022-11-28T22:20:24.687Z,86.64
2022-11-28T23:05:47.918Z,86.77
2022-11-28T23:08:24.351Z,86.79
2022-11-28T23:10:57.726Z,86.58
2022-11-28T23:13:36.521Z,86.69
2022-11-28T23:16:19.361Z,86.70
2022-11-28T23:18:57.568Z,86.72
2022-11-28T23:21:47.316Z,86.98
2022-11-28T23:24:25.656Z,86.87
2022-11-28T23:27:11.594Z,86.97
2022-11-28T23:32:46.199Z,86.93
2022-11-28T23:38:40.247Z,86.90
2022-11-28T23:41:16.493Z,87.16
2022-11-28T23:43:55.959Z,87.26
2022-11-28T23:46:32.058Z,87.02
2022-11-28T23:49:10.811Z,87.08
2022-11-28T23:51:44.207Z,87.38
2022-11-28T23:54:22.821Z,87.12
2022-11-28T23:57:00.595Z,87.25
2022-11-28T23:59:35.779Z,87.26
